Latest Weather Observations for Mount Hotham

IDV60801

Issued at 1:33 am EST Wednesday 28 June 2017 (issued every 30 minutes, with the page automatically refreshed every 10 minutes)

About weather observations | Map of weather stations | Latest weather observations for VIC | Other Formats
Station Details ID: 083085 Name: MOUNT HOTHAM Lat: -36.98 Lon: 147.13 Height: 1849.0 m
Data from the previous 72 hours. | See also: Recent months at Mount Hotham
Date/Time
EST
Temp
°C
App
Temp
°C
Dew
Point
°C
Rel
Hum
%
Delta-T
°C
Wind Press
QNH
hPa
Press
MSL
hPa
Rain since
9am
mm
Dir  Spd
km/h
Gust
km/h
Spd
kts
Gust
kts
28/01:30am -3.2 - - - - NNE 17 20 9 11 - - 1.4
28/01:00am -3.1 - - - - N 24 30 13 16 - - 1.4
28/12:30am -2.7 - - - - NNE 19 22 10 12 - - 1.4
28/12:00am -2.4 - - - - NNE 19 22 10 12 - - 1.4
 
Date/Time
EST
Temp
°C
App
Temp
°C
Dew
Point
°C
Rel
Hum
%
Delta-T
°C
Wind Press
QNH
hPa
Press
MSL
hPa
Rain since
9am
mm
Dir  Spd
km/h
Gust
km/h
Spd
kts
Gust
kts
27/11:30pm -1.5 - - - - N 20 24 11 13 - - 1.4
27/11:00pm -1.7 - - - - N 20 26 11 14 - - 1.4
27/10:30pm -2.2 - - - - NNE 15 17 8 9 - - 1.4
27/10:00pm -2.5 - - - - NNE 15 19 8 10 - - 1.4
27/09:30pm -2.9 - - - - NNE 19 22 10 12 - - 1.4
27/09:00pm -2.9 - - - - NNE 19 20 10 11 - - 1.4
27/08:30pm -3.1 - - - - NNE 11 17 6 9 - - 1.4
27/08:00pm -3.2 - - - - NNE 11 13 6 7 - - 1.4
27/07:30pm -3.1 - - - - NNE 9 13 5 7 - - 1.4
27/07:00pm -3.1 - - - - NE 15 20 8 11 - - 1.4
27/06:30pm -3.2 - - - - NE 13 17 7 9 - - 1.4
27/06:00pm -3.0 - - - - NNE 11 17 6 9 - - 1.4
27/05:30pm -2.8 - - - - NNE 13 17 7 9 - - 1.4
27/05:00pm -2.7 - - - - NNE 20 24 11 13 - - 1.4
27/04:30pm -2.5 - - - - NNE 26 32 14 17 - - 1.4
27/04:00pm -2.3 - - - - NNE 30 37 16 20 - - 1.4
27/03:30pm -2.0 - - - - N 28 35 15 19 - - 1.4
27/03:00pm -1.8 - - - - NNE 26 32 14 17 - - 1.4
27/02:30pm -1.5 - - - - NNE 28 32 15 17 - - 1.4
27/02:00pm -1.8 - - - - NNE 28 32 15 17 - - 1.4
27/01:30pm -1.4 - - - - NNE 32 37 17 20 - - 1.4
27/01:00pm -1.3 - - - - NNE 39 44 21 24 - - 1.0
27/12:30pm -1.4 - - - - NNE 39 44 21 24 - - 0.6
27/12:00pm -1.5 - - - - NNE 37 43 20 23 - - 0.2
27/11:30am -1.3 - - - - NNE 35 41 19 22 - - 0.2
27/11:00am -1.2 - - - - NNE 43 48 23 26 - - 0.2
27/10:30am -0.6 - - - - NNE 37 44 20 24 - - 0.2
27/10:00am -1.3 - - - - NNE 39 44 21 24 - - 0.0
27/09:48am -1.3 - - - - NNE 24 41 13 22 - - 0.0
27/09:30am -1.5 - - - - NNE 19 20 10 11 - - 0.0
27/09:00am -2.3 - - - - NNE 19 20 10 11 - - 13.4
27/08:30am -3.0 - - - - NNE 17 19 9 10 - - 13.4
27/08:00am -3.2 - - - - NNW 2 4 1 2 - - 13.4
27/07:30am -3.4 - - - - CALM 0 4 0 2 - - 13.4
27/07:00am -3.1 - - - - CALM 0 4 0 2 - - 13.4
27/06:30am -1.8 - - - - CALM 0 4 0 2 - - 13.4
27/06:00am -2.8 - - - - CALM 0 2 0 1 - - 13.4
27/05:30am -2.6 - - - - CALM 0 2 0 1 - - 13.4
27/05:00am -2.7 - - - - CALM 0 2 0 1 - - 13.4
27/04:30am -2.6 - - - - CALM 0 2 0 1 - - 13.4
27/04:00am -1.8 - - - - CALM 0 2 0 1 - - 13.4
27/03:30am -2.1 - - - - CALM 0 0 0 0 - - 13.4
27/03:00am -2.0 - - - - CALM 0 2 0 1 - - 13.4
27/02:30am -2.5 - - - - CALM 0 0 0 0 - - 13.4
27/02:00am -2.9 - - - - CALM 0 0 0 0 - - 13.4
27/01:30am -2.9 - - - - CALM 0 0 0 0 - - 13.4
27/01:00am -2.8 - - - - CALM 0 2 0 1 - - 13.4
27/12:30am -3.6 - - - - CALM 0 0 0 0 - - 13.4
27/12:00am -3.7 - - - - CALM 0 0 0 0 - - 13.4
 
Date/Time
EST
Temp
°C
App
Temp
°C
Dew
Point
°C
Rel
Hum
%
Delta-T
°C
Wind Press
QNH
hPa
Press
MSL
hPa
Rain since
9am
mm
Dir  Spd
km/h
Gust
km/h
Spd
kts
Gust
kts
26/11:30pm -3.9 - - - - CALM 0 2 0 1 - - 13.4
26/11:00pm -4.1 - - - - CALM 0 0 0 0 - - 13.4
26/10:30pm -3.0 - - - - CALM 0 0 0 0 - - 13.4
26/10:00pm -2.9 - - - - CALM 0 0 0 0 - - 13.4
26/09:30pm -2.7 - - - - CALM 0 0 0 0 - - 13.4
26/09:00pm -2.6 - - - - CALM 0 2 0 1 - - 13.4
26/08:30pm -2.9 - - - - CALM 0 0 0 0 - - 13.4
26/08:00pm -2.8 - - - - CALM 0 0 0 0 - - 13.4
26/07:30pm -2.5 - - - - CALM 0 0 0 0 - - 13.4
26/07:00pm -2.2 - - - - CALM 0 0 0 0 - - 13.4
26/06:30pm -2.0 - - - - CALM 0 0 0 0 - - 13.4
26/06:00pm -2.0 - - - - CALM 0 0 0 0 - - 13.4
26/05:30pm -1.9 - - - - CALM 0 0 0 0 - - 13.4
26/05:00pm -1.9 - - - - CALM 0 0 0 0 - - 13.4
26/04:30pm -1.7 - - - - CALM 0 0 0 0 - - 13.4
26/04:00pm -1.7 - - - - CALM 0 0 0 0 - - 13.4
26/03:30pm -1.5 - - - - CALM 0 0 0 0 - - 13.2
26/03:00pm -0.8 - - - - CALM 0 0 0 0 - - 12.2
26/02:30pm -1.0 - - - - CALM 0 0 0 0 - - 10.6
26/02:00pm -0.8 - - - - CALM 0 0 0 0 - - 8.6
26/01:30pm -1.5 - - - - CALM 0 0 0 0 - - 5.8
26/01:00pm -1.2 - - - - CALM 0 0 0 0 - - 0.6
26/12:30pm -2.1 - - - - CALM 0 0 0 0 - - 0.0
26/12:00pm -1.7 - - - - CALM 0 0 0 0 - - 0.0
26/11:30am -1.6 - - - - CALM 0 0 0 0 - - 0.0
26/11:00am -2.3 - - - - CALM 0 0 0 0 - - 0.0
26/10:30am -2.8 - - - - CALM 0 0 0 0 - - 0.0
26/10:00am -3.1 - - - - CALM 0 0 0 0 - - 0.0
26/09:30am -3.3 - - - - NW 7 9 4 5 - - 0.0
26/09:00am -3.4 - - - - NW 7 9 4 5 - - 0.0
26/08:30am -3.0 - - - - NW 9 13 5 7 - - 0.0
26/08:00am -3.1 - - - - NW 11 15 6 8 - - 0.0
26/07:30am -2.7 - - - - NW 11 15 6 8 - - 0.0
26/07:00am -2.5 - - - - NW 11 15 6 8 - - 0.0
26/06:30am -2.3 - - - - NW 9 13 5 7 - - 0.0
26/06:00am -2.2 - - - - NW 11 13 6 7 - - 0.0
26/05:30am -2.0 - - - - NW 11 17 6 9 - - 0.0
26/05:00am -1.9 - - - - NW 9 11 5 6 - - 0.0
26/04:30am -1.9 - - - - NW 9 13 5 7 - - 0.0
26/04:00am -1.9 - - - - NW 11 13 6 7 - - 0.0
26/03:30am -2.0 - - - - NW 11 13 6 7 - - 0.0
26/03:00am -1.8 - - - - NW 11 13 6 7 - - 0.0
26/02:30am -1.8 - - - - NW 9 13 5 7 - - 0.0
26/02:00am -1.8 - - - - NW 9 13 5 7 - - 0.0
26/01:30am -1.9 - - - - NW 11 13 6 7 - - 0.0
26/01:00am -1.9 - - - - NW 11 15 6 8 - - 0.0
26/12:30am -1.9 - - - - NW 9 13 5 7 - - 0.0
26/12:00am -2.0 - - - - NW 9 13 5 7 - - 0.0
 
Date/Time
EST
Temp
°C
App
Temp
°C
Dew
Point
°C
Rel
Hum
%
Delta-T
°C
Wind Press
QNH
hPa
Press
MSL
hPa
Rain since
9am
mm
Dir  Spd
km/h
Gust
km/h
Spd
kts
Gust
kts
25/11:30pm -2.0 - - - - NW 11 15 6 8 - - 0.0
25/11:00pm -2.1 - - - - NW 11 13 6 7 - - 0.0
25/10:30pm -2.0 - - - - NW 13 15 7 8 - - 0.0
25/10:00pm -2.1 - - - - NW 13 17 7 9 - - 0.0
25/09:30pm -2.2 - - - - NW 15 17 8 9 - - 0.0
25/09:00pm -2.4 - - - - NW 13 17 7 9 - - 0.0
25/08:30pm -2.4 - - - - NW 17 20 9 11 - - 0.0
25/08:00pm -2.5 - - - - NW 15 19 8 10 - - 0.0
25/07:30pm -2.5 - - - - NW 13 19 7 10 - - 0.0
25/07:00pm -2.6 - - - - NW 13 17 7 9 - - 0.0
25/06:30pm -2.7 - - - - NW 13 19 7 10 - - 0.0
25/06:00pm -2.9 - - - - NW 17 20 9 11 - - 0.0
25/05:30pm -3.3 - - - - NW 15 20 8 11 - - 0.0
25/05:00pm -3.3 - - - - NW 17 24 9 13 - - 0.0
25/04:30pm -3.1 - - - - NW 17 20 9 11 - - 0.0
25/04:00pm -3.1 - - - - NW 17 20 9 11 - - 0.0
25/03:30pm -3.3 - - - - NNW 15 19 8 10 - - 0.0
25/03:00pm -3.0 - - - - NNW 17 19 9 10 - - 0.0
25/02:30pm -3.2 - - - - NNW 15 20 8 11 - - 0.0
25/02:00pm -3.3 - - - - NW 17 22 9 12 - - 0.0
25/01:30pm -3.1 - - - - NW 17 22 9 12 - - 0.0
25/01:00pm -3.1 - - - - NW 17 22 9 12 - - 0.0
25/12:30pm -3.1 - - - - NW 19 24 10 13 - - 0.0
25/12:00pm -3.3 - - - - NW 19 24 10 13 - - 0.0
25/11:30am -3.4 - - - - NW 20 24 11 13 - - 0.0
25/11:00am -3.6 - - - - NW 20 26 11 14 - - 0.0
25/10:30am -3.7 - - - - NNW 22 28 12 15 - - 0.0
25/10:00am -3.8 - - - - NW 20 28 11 15 - - 0.0
25/09:30am -3.7 - - - - NW 20 24 11 13 - - 0.0
25/09:00am -4.0 - - - - NW 19 24 10 13 - - 0.0
25/08:30am -4.3 - - - - NW 20 26 11 14 - - 0.0
25/08:00am -4.5 - - - - NW 22 28 12 15 - - 0.0
25/07:30am -4.4 - - - - NW 22 30 12 16 - - 0.0
25/07:00am -5.0 - - - - NW 22 26 12 14 - - 0.0
25/06:30am -5.3 - - - - NW 20 26 11 14 - - 0.0
25/06:00am -5.6 - - - - NW 20 28 11 15 - - 0.0
25/05:30am -6.1 - - - - NNW 20 28 11 15 - - 0.0
25/05:00am -6.2 - - - - NNW 22 26 12 14 - - 0.0
25/04:30am -6.2 - - - - NNW 22 26 12 14 - - 0.0
25/04:00am -6.1 - - - - NNW 22 24 12 13 - - 0.0
25/03:30am -6.2 - - - - NNW 22 24 12 13 - - 0.0
25/03:00am -5.8 - - - - NNW 20 24 11 13 - - 0.0
25/02:30am -5.9 - - - - NNW 20 24 11 13 - - 0.0
25/02:00am -5.9 - - - - NNW 20 24 11 13 - - 0.0

Other Formats:

Comma delimited format used in spreadsheet applications
http://www.bom.gov.au/fwo/IDV60801/IDV60801.94906.axf

JavaScript Object Notation format (JSON) in row-major order
http://www.bom.gov.au/fwo/IDV60801/IDV60801.94906.json